Time;durP1;ratioP1;P1;durP2;ratioP2;P2;SDS_P1;SDS_P2;PMS_P1;PMS_P2;Temp;Humidity;BMP_temperature;BMP_pressure;BME280_temperature;BME280_humidity;BME280_pressure;Samples;Min_cycle;Max_cycle;Signal;HPM_P1;HPM_P2
2021/01/13 00:00:59;;;;;;;21.35;10.38;;;1.10;99.90;;;;;;5041402;28;20402;-67
2021/01/13 00:03:25;;;;;;;23.17;10.80;;;1.00;99.90;;;;;;5031441;28;20045;-67
2021/01/13 00:05:52;;;;;;;26.08;10.52;;;1.10;99.90;;;;;;5031975;28;20562;-71
2021/01/13 00:08:18;;;;;;;;;;;1.00;99.90;;;;;;5028862;28;20050;-70
2021/01/13 00:10:45;;;;;;;21.83;9.70;;;1.10;99.90;;;;;;5061459;28;19967;-66
2021/01/13 00:13:11;;;;;;;;;;;1.10;99.90;;;;;;5031194;28;20091;-66
2021/01/13 00:15:39;;;;;;;17.70;9.80;;;1.10;99.90;;;;;;5030851;28;20067;-66
2021/01/13 00:18:06;;;;;;;34.10;12.40;;;1.10;99.90;;;;;;5028213;28;20071;-67
2021/01/13 00:20:32;;;;;;;30.60;10.95;;;1.00;99.90;;;;;;5042971;28;20051;-66
2021/01/13 00:22:59;;;;;;;25.67;11.30;;;1.00;99.90;;;;;;5035465;28;20049;-66
2021/01/13 00:25:26;;;;;;;25.40;11.57;;;1.00;99.90;;;;;;5046118;28;20518;-66
2021/01/13 00:27:52;;;;;;;29.75;11.88;;;1.10;99.90;;;;;;5033301;28;20049;-67
2021/01/13 00:30:20;;;;;;;27.77;12.13;;;1.20;99.90;;;;;;5041258;28;20055;-71
2021/01/13 00:32:47;;;;;;;30.83;11.68;;;1.10;99.90;;;;;;5040828;28;20483;-65
2021/01/13 00:35:15;;;;;;;30.52;12.05;;;1.10;99.90;;;;;;5031680;28;20115;-66
2021/01/13 00:37:42;;;;;;;31.38;11.45;;;1.10;99.90;;;;;;5027542;28;20044;-66
2021/01/13 00:40:10;;;;;;;22.48;12.65;;;1.10;99.90;;;;;;5034442;28;20040;-66
2021/01/13 00:42:43;;;;;;;25.25;12.60;;;1.00;99.90;;;;;;5027218;28;20168;-66
2021/01/13 00:45:12;;;;;;;24.98;12.38;;;1.00;99.90;;;;;;5031849;28;20050;-66
2021/01/13 00:47:41;;;;;;;26.60;12.05;;;1.00;99.90;;;;;;5025984;28;20045;-66
2021/01/13 00:50:10;;;;;;;30.98;12.43;;;0.90;99.90;;;;;;5031162;28;20049;-65
2021/01/13 00:52:37;;;;;;;25.85;12.70;;;0.90;99.90;;;;;;5051396;28;20473;-68
2021/01/13 00:55:05;;;;;;;28.48;12.25;;;0.90;99.90;;;;;;5027900;28;20045;-67
2021/01/13 00:57:31;;;;;;;27.52;11.63;;;0.90;99.90;;;;;;5030978;28;20045;-68
2021/01/13 00:59:59;;;;;;;32.47;12.77;;;0.80;99.90;;;;;;5028113;28;20049;-66
2021/01/13 01:02:26;;;;;;;32.60;12.73;;;0.80;99.90;;;;;;5035775;28;20050;-67
2021/01/13 01:04:53;;;;;;;27.52;13.10;;;0.80;99.90;;;;;;5026646;28;20064;-66
2021/01/13 01:07:20;;;;;;;;;;;0.90;99.90;;;;;;5031999;28;20045;-71
2021/01/13 01:09:46;;;;;;;33.13;12.77;;;0.90;99.90;;;;;;5027075;28;20370;-65
2021/01/13 01:12:13;;;;;;;;;;;1.00;99.90;;;;;;5033820;28;20459;-66
2021/01/13 01:14:40;;;;;;;34.60;14.23;;;0.90;99.90;;;;;;5026860;28;20010;-66
2021/01/13 01:17:11;;;;;;;36.15;15.23;;;1.00;99.90;;;;;;5031603;28;20491;-66
2021/01/13 01:19:39;;;;;;;35.17;13.95;;;1.00;99.90;;;;;;5026893;28;20666;-67
2021/01/13 01:22:05;;;;;;;31.00;14.07;;;1.00;99.90;;;;;;5031764;28;20497;-67
2021/01/13 01:24:33;;;;;;;30.65;15.02;;;1.00;99.90;;;;;;5026358;28;20123;-67
2021/01/13 01:26:59;;;;;;;28.45;13.20;;;0.90;99.90;;;;;;5030516;28;20048;-67
2021/01/13 01:29:26;;;;;;;32.20;13.55;;;0.80;99.90;;;;;;5030359;28;20052;-67
2021/01/13 01:31:52;;;;;;;;;;;0.80;99.90;;;;;;5051370;28;20076;-67
2021/01/13 01:34:19;;;;;;;29.80;13.18;;;0.80;99.90;;;;;;5042172;28;19925;-71
2021/01/13 01:36:46;;;;;;;35.13;13.38;;;0.70;99.90;;;;;;5032199;28;20076;-67
2021/01/13 01:39:13;;;;;;;31.67;12.55;;;0.70;99.90;;;;;;5035344;28;20046;-67
2021/01/13 01:41:42;;;;;;;;;;;0.70;99.90;;;;;;5044150;28;20045;-67
2021/01/13 01:44:09;;;;;;;21.70;12.60;;;0.60;99.90;;;;;;5054921;28;20363;-67
2021/01/13 01:46:39;;;;;;;30.95;13.45;;;0.60;99.90;;;;;;5034144;28;20491;-67
2021/01/13 01:49:06;;;;;;;29.40;14.38;;;0.70;99.90;;;;;;5035059;28;20046;-67
2021/01/13 01:51:36;;;;;;;32.22;14.02;;;0.80;99.90;;;;;;5042766;28;20091;-66
2021/01/13 01:54:16;;;;;;;37.53;15.23;;;0.90;99.90;;;;;;5054699;28;20510;-67
2021/01/13 01:56:45;;;;;;;38.10;15.07;;;1.00;99.90;;;;;;5068842;28;20084;-67
2021/01/13 01:59:13;;;;;;;35.17;15.77;;;0.90;99.90;;;;;;5019022;28;20498;-69
2021/01/13 02:01:41;;;;;;;34.83;16.35;;;0.90;99.90;;;;;;5030815;28;20913;-68
2021/01/13 02:04:13;;;;;;;23.17;14.23;;;0.80;99.90;;;;;;5034853;28;20395;-67
2021/01/13 02:06:56;;;;;;;33.53;14.90;;;0.70;99.90;;;;;;5029645;28;20037;-67
2021/01/13 02:09:22;;;;;;;32.58;15.13;;;0.60;99.90;;;;;;5033807;28;20073;-68
2021/01/13 02:11:53;;;;;;;33.75;14.60;;;0.60;99.90;;;;;;5034891;28;20060;-67
2021/01/13 02:14:21;;;;;;;28.27;15.75;;;0.60;99.90;;;;;;5033488;28;20575;-71
2021/01/13 02:16:50;;;;;;;33.92;14.35;;;0.50;99.90;;;;;;5030794;28;20450;-67
2021/01/13 02:19:45;;;;;;;42.05;14.93;;;0.50;99.90;;;;;;5034262;28;20124;-66
2021/01/13 02:22:13;;;;;;;26.80;15.38;;;0.50;99.90;;;;;;5020068;28;20069;-67
2021/01/13 02:25:20;;;;;;;31.10;14.13;;;0.50;99.90;;;;;;5033037;28;20156;-66
2021/01/13 02:27:58;;;;;;;27.08;14.77;;;0.40;99.90;;;;;;4987373;28;20470;-66
2021/01/13 02:30:31;;;;;;;26.77;14.95;;;0.40;99.90;;;;;;5040457;28;20048;-66
2021/01/13 02:33:04;;;;;;;33.22;15.68;;;0.40;99.90;;;;;;5038201;28;20069;-66
2021/01/13 02:35:54;;;;;;;36.85;15.55;;;0.50;99.90;;;;;;5033416;28;20076;-66
2021/01/13 02:38:23;;;;;;;30.10;14.88;;;0.40;99.90;;;;;;5029446;28;20069;-69
2021/01/13 02:40:51;;;;;;;44.80;16.15;;;0.40;99.90;;;;;;5043293;28;20048;-66
2021/01/13 02:43:21;;;;;;;33.88;15.88;;;0.40;99.90;;;;;;5037965;28;20069;-69
2021/01/13 02:45:49;;;;;;;22.88;13.70;;;0.40;99.90;;;;;;5033893;28;20052;-66
2021/01/13 02:48:20;;;;;;;34.35;14.88;;;0.50;99.90;;;;;;5030140;28;20638;-66
2021/01/13 02:50:57;;;;;;;35.63;15.70;;;0.40;99.90;;;;;;5034840;28;20047;-66
2021/01/13 02:53:56;;;;;;;31.45;14.40;;;0.40;99.90;;;;;;5029550;28;20124;-65
2021/01/13 02:56:51;;;;;;;27.40;14.90;;;0.40;99.90;;;;;;5033109;28;20132;-66
2021/01/13 02:59:19;;;;;;;33.83;13.90;;;0.40;99.90;;;;;;5029711;28;20069;-72
2021/01/13 03:01:46;;;;;;;31.80;13.60;;;0.40;99.90;;;;;;5042729;28;20103;-67
2021/01/13 03:04:13;;;;;;;38.80;13.55;;;0.50;99.90;;;;;;5037261;28;20049;-67
2021/01/13 03:06:44;;;;;;;26.95;14.02;;;0.50;99.90;;;;;;5047317;28;20045;-66
2021/01/13 03:09:12;;;;;;;27.17;13.52;;;0.40;99.90;;;;;;5029917;28;20045;-66
2021/01/13 03:11:40;;;;;;;28.13;12.38;;;0.40;99.90;;;;;;5038018;28;20041;-67
2021/01/13 03:14:25;;;;;;;35.72;12.57;;;0.40;99.90;;;;;;5029659;28;20045;-67
2021/01/13 03:17:21;;;;;;;26.95;12.20;;;0.40;99.90;;;;;;5033330;28;20042;-67
2021/01/13 03:20:19;;;;;;;31.38;12.75;;;0.50;99.90;;;;;;5029420;28;20041;-67
2021/01/13 03:22:54;;;;;;;25.23;12.43;;;0.50;99.90;;;;;;5051270;28;20478;-67
2021/01/13 03:25:23;;;;;;;31.58;12.70;;;0.50;99.90;;;;;;5029831;28;20081;-71
2021/01/13 03:27:52;;;;;;;31.38;12.68;;;0.60;99.90;;;;;;5032945;28;20402;-66
2021/01/13 03:30:22;;;;;;;30.80;11.85;;;0.60;99.90;;;;;;5040447;28;20048;-70
2021/01/13 03:33:08;;;;;;;34.38;12.40;;;0.50;99.90;;;;;;5052943;28;20106;-67
2021/01/13 03:35:38;;;;;;;31.52;11.80;;;0.70;99.90;;;;;;5021390;28;20103;-66
2021/01/13 03:38:13;;;;;;;32.47;11.70;;;0.70;99.90;;;;;;5033055;28;20076;-67
2021/01/13 03:40:42;;;;;;;30.25;11.45;;;0.70;99.90;;;;;;5029368;28;20671;-67
2021/01/13 03:43:17;;;;;;;25.10;10.38;;;0.70;99.90;;;;;;5031471;28;20046;-67
2021/01/13 03:45:48;;;;;;;24.30;10.50;;;0.80;99.90;;;;;;5028060;28;20060;-67
2021/01/13 03:48:33;;;;;;;23.85;9.38;;;0.80;99.90;;;;;;5032666;28;20057;-68
2021/01/13 03:51:02;;;;;;;21.40;8.65;;;0.90;99.90;;;;;;5028645;28;20095;-66
2021/01/13 03:53:39;;;;;;;23.52;8.95;;;1.10;99.90;;;;;;5032168;28;20044;-67
2021/01/13 03:56:10;;;;;;;15.35;7.22;;;1.10;99.90;;;;;;5044120;28;20087;-68
2021/01/13 03:58:48;;;;;;;19.65;7.18;;;1.30;99.90;;;;;;5031209;28;20192;-66
2021/01/13 04:01:46;;;;;;;21.77;8.15;;;1.30;99.90;;;;;;5035827;28;20390;-67
2021/01/13 04:04:53;;;;;;;24.27;7.28;;;1.30;99.90;;;;;;5032477;28;20037;-67
2021/01/13 04:07:22;;;;;;;15.48;7.18;;;1.30;99.90;;;;;;5026416;28;20057;-72
2021/01/13 04:09:50;;;;;;;19.95;7.53;;;1.20;99.90;;;;;;5034840;28;20054;-66
2021/01/13 04:12:21;;;;;;;23.60;7.47;;;1.20;99.90;;;;;;5031779;28;20045;-66
2021/01/13 04:14:53;;;;;;;20.80;6.68;;;1.20;99.90;;;;;;5012902;28;20164;-67
2021/01/13 04:17:25;;;;;;;18.42;7.25;;;1.30;99.90;;;;;;5023537;28;20455;-71
2021/01/13 04:19:53;;;;;;;24.65;7.47;;;1.30;99.90;;;;;;5036120;28;20045;-66
2021/01/13 04:22:21;;;;;;;17.60;6.13;;;1.30;99.90;;;;;;5033359;28;20045;-71
2021/01/13 04:24:53;;;;;;;18.27;6.88;;;1.20;99.90;;;;;;5031808;28;20067;-66
2021/01/13 04:27:22;;;;;;;18.13;5.85;;;1.30;99.90;;;;;;5035077;28;20061;-71
2021/01/13 04:29:49;;;;;;;17.00;7.35;;;1.30;99.90;;;;;;5066659;28;20405;-66
2021/01/13 04:32:15;;;;;;;18.98;5.93;;;1.40;99.90;;;;;;5053769;28;20041;-67
2021/01/13 04:34:43;;;;;;;16.40;6.80;;;1.40;99.90;;;;;;5031399;28;20486;-67
2021/01/13 04:37:11;;;;;;;22.02;6.25;;;1.40;99.90;;;;;;5028285;28;20042;-66
2021/01/13 04:39:38;;;;;;;20.83;7.45;;;1.40;99.90;;;;;;5032227;28;20042;-67
2021/01/13 04:42:10;;;;;;;19.27;6.22;;;1.40;99.90;;;;;;5043193;28;20042;-66
2021/01/13 04:45:05;;;;;;;22.42;6.68;;;1.40;99.90;;;;;;5039143;28;20053;-67
2021/01/13 04:47:49;;;;;;;17.38;5.35;;;1.60;99.90;;;;;;5064945;28;20049;-67
2021/01/13 04:50:18;;;;;;;13.85;4.63;;;1.40;99.90;;;;;;5064174;28;20045;-66
2021/01/13 04:52:47;;;;;;;22.48;5.20;;;1.30;99.90;;;;;;5027623;28;20045;-67
2021/01/13 04:55:23;;;;;;;14.65;5.15;;;1.30;99.90;;;;;;5031338;28;20128;-66
2021/01/13 04:58:43;;;;;;;22.75;5.60;;;1.20;99.90;;;;;;5027668;28;20038;-67
2021/01/13 05:01:53;;;;;;;24.80;5.60;;;1.20;99.90;;;;;;4971527;28;20403;-67
2021/01/13 05:04:54;;;;;;;15.88;5.15;;;1.00;99.90;;;;;;4966411;28;20050;-71
2021/01/13 05:07:31;;;;;;;17.40;4.80;;;1.00;99.90;;;;;;5024489;28;20064;-71
2021/01/13 05:10:04;;;;;;;18.77;4.82;;;0.80;99.90;;;;;;5029951;28;20045;-67
2021/01/13 05:12:53;;;;;;;17.80;4.63;;;0.70;99.90;;;;;;5048160;28;20486;-67
2021/01/13 05:15:25;;;;;;;14.00;4.63;;;0.60;99.90;;;;;;5031017;28;20064;-71
2021/01/13 05:18:01;;;;;;;14.73;4.85;;;0.60;99.90;;;;;;5031387;28;20465;-67
2021/01/13 05:20:29;;;;;;;17.67;4.88;;;0.50;99.90;;;;;;5021652;28;20053;-67
2021/01/13 05:22:58;;;;;;;18.75;5.47;;;0.40;99.90;;;;;;5011987;28;20038;-67
2021/01/13 05:25:44;;;;;;;21.60;5.93;;;0.40;99.90;;;;;;5025891;28;20053;-67
2021/01/13 05:28:20;;;;;;;23.83;6.43;;;0.40;99.90;;;;;;5016751;28;20367;-67
2021/01/13 05:30:49;;;;;;;16.92;5.63;;;0.50;99.90;;;;;;5031919;28;20107;-67
2021/01/13 05:33:18;;;;;;;30.40;5.90;;;0.50;99.90;;;;;;5048226;28;20034;-67
2021/01/13 05:35:48;;;;;;;15.98;4.63;;;0.30;99.90;;;;;;5027226;28;20084;-67
2021/01/13 05:38:19;;;;;;;20.25;5.53;;;0.20;99.90;;;;;;5031211;28;20042;-66
2021/01/13 05:40:48;;;;;;;18.80;6.03;;;0.20;99.90;;;;;;5031186;28;20065;-67
2021/01/13 05:43:17;;;;;;;27.35;8.23;;;0.10;99.90;;;;;;5043711;28;20044;-67
2021/01/13 05:45:44;;;;;;;25.05;6.13;;;0.10;99.90;;;;;;5026457;28;20517;-67
2021/01/13 05:48:16;;;;;;;15.90;5.95;;;0.00;99.90;;;;;;5031019;28;20050;-67
2021/01/13 05:50:43;;;;;;;20.15;6.28;;;-0.10;99.90;;;;;;5029532;28;20065;-67
2021/01/13 05:53:11;;;;;;;33.15;6.07;;;-0.10;99.90;;;;;;5039669;28;20474;-67
2021/01/13 05:55:46;;;;;;;30.30;6.43;;;-0.10;99.90;;;;;;5026266;28;20846;-66
2021/01/13 05:58:13;;;;;;;26.95;6.22;;;0.10;99.90;;;;;;5031198;28;20065;-68
2021/01/13 06:00:40;;;;;;;21.17;5.40;;;0.00;99.90;;;;;;5025485;28;20037;-67
2021/01/13 06:03:10;;;;;;;16.83;4.38;;;0.10;99.90;;;;;;5028879;28;20044;-67
2021/01/13 06:05:51;;;;;;;21.95;5.63;;;0.00;99.90;;;;;;5021117;28;20152;-68
2021/01/13 06:08:18;;;;;;;13.55;6.28;;;0.00;99.90;;;;;;5011411;28;20081;-67
2021/01/13 06:10:46;;;;;;;19.25;4.88;;;-0.10;99.90;;;;;;5021944;28;20069;-67
2021/01/13 06:13:19;;;;;;;22.90;5.18;;;0.00;99.90;;;;;;5017924;28;20486;-66
2021/01/13 06:15:46;;;;;;;19.85;5.05;;;-0.10;99.90;;;;;;5028553;28;20049;-66
2021/01/13 06:18:22;;;;;;;16.05;4.78;;;-0.10;99.90;;;;;;5023860;28;20099;-66
2021/01/13 06:20:49;;;;;;;9.65;4.03;;;-0.10;99.90;;;;;;5028185;28;20093;-67
2021/01/13 06:23:17;;;;;;;10.95;4.43;;;-0.10;99.90;;;;;;5032318;28;20064;-64
2021/01/13 06:25:48;;;;;;;19.15;5.05;;;-0.10;99.90;;;;;;5026635;28;20061;-68
2021/01/13 06:28:27;;;;;;;12.13;3.63;;;-0.10;99.90;;;;;;5027271;28;20064;-67
2021/01/13 06:31:08;;;;;;;16.05;3.45;;;0.00;99.90;;;;;;5042190;28;20044;-67
2021/01/13 06:33:49;;;;;;;21.35;3.92;;;0.00;99.90;;;;;;5019085;28;20046;-66
2021/01/13 06:36:29;;;;;;;17.35;3.25;;;0.00;99.90;;;;;;5017522;28;20052;-66
2021/01/13 06:38:57;;;;;;;15.35;3.38;;;0.10;99.90;;;;;;5030408;28;20398;-68
2021/01/13 06:41:25;;;;;;;13.30;3.13;;;0.20;99.90;;;;;;5030170;28;20041;-67
2021/01/13 06:44:03;;;;;;;15.75;2.92;;;0.20;99.90;;;;;;5041797;28;20049;-67
2021/01/13 06:46:30;;;;;;;16.88;3.22;;;0.20;99.90;;;;;;5030529;28;20045;-71
2021/01/13 06:49:12;;;;;;;13.90;3.10;;;0.20;99.90;;;;;;5027761;28;20091;-66
2021/01/13 06:51:42;;;;;;;16.15;3.15;;;0.10;99.90;;;;;;5029653;28;20049;-67
2021/01/13 06:54:12;;;;;;;16.20;4.57;;;0.00;99.90;;;;;;5033562;28;20119;-67
2021/01/13 06:56:48;;;;;;;21.25;4.72;;;0.00;99.90;;;;;;5032655;28;20045;-70
2021/01/13 06:59:16;;;;;;;23.83;5.68;;;0.00;99.90;;;;;;5032386;28;20037;-68
2021/01/13 07:01:53;;;;;;;20.15;5.00;;;0.00;99.90;;;;;;5032520;28;20099;-68
2021/01/13 07:04:19;;;;;;;;;;;0.00;99.90;;;;;;5030401;28;20506;-71
2021/01/13 07:07:03;;;;;;;17.10;4.88;;;-0.10;99.90;;;;;;5033188;28;19967;-68
2021/01/13 07:09:37;;;;;;;19.58;4.70;;;-0.10;99.90;;;;;;5029651;28;20053;-68
2021/01/13 07:12:12;;;;;;;19.60;5.65;;;-0.20;99.90;;;;;;5033849;28;20053;-68
2021/01/13 07:14:41;;;;;;;25.00;5.60;;;-0.20;99.90;;;;;;5028356;28;20586;-67
2021/01/13 07:17:10;;;;;;;23.52;6.80;;;-0.10;99.90;;;;;;5033133;28;20045;-67
2021/01/13 07:19:37;;;;;;;14.48;4.97;;;-0.10;99.90;;;;;;5028513;28;20056;-67
2021/01/13 07:22:05;;;;;;;22.42;5.50;;;-0.10;99.90;;;;;;5033004;28;20537;-67
2021/01/13 07:24:32;;;;;;;20.50;6.38;;;-0.10;99.90;;;;;;5027891;28;20042;-67
2021/01/13 07:26:59;;;;;;;23.88;6.32;;;-0.20;99.90;;;;;;5031235;28;20049;-69
2021/01/13 07:29:27;;;;;;;22.17;6.18;;;-0.10;99.90;;;;;;5028313;28;20045;-67
2021/01/13 07:31:57;;;;;;;19.02;5.70;;;-0.10;99.90;;;;;;5033195;28;20042;-67
2021/01/13 07:34:32;;;;;;;14.20;5.90;;;-0.10;99.90;;;;;;5028447;28;20557;-67
2021/01/13 07:37:01;;;;;;;20.75;6.05;;;0.10;99.90;;;;;;5033588;28;20037;-67
2021/01/13 07:40:08;;;;;;;18.58;5.72;;;0.10;99.90;;;;;;5057477;28;20041;-67
2021/01/13 07:42:36;;;;;;;23.33;3.90;;;0.20;99.90;;;;;;5011083;28;20058;-67
2021/01/13 07:45:08;;;;;;;13.10;4.65;;;0.50;99.90;;;;;;5028124;28;20057;-67
2021/01/13 07:48:33;;;;;;;22.55;6.13;;;0.50;99.90;;;;;;5031874;28;20132;-66
2021/01/13 07:51:07;;;;;;;17.77;5.70;;;0.70;99.90;;;;;;5028938;28;20128;-66
2021/01/13 07:53:37;;;;;;;15.77;5.55;;;0.80;99.90;;;;;;5043838;28;20145;-66
2021/01/13 07:56:05;;;;;;;16.73;6.78;;;0.90;99.90;;;;;;5026666;28;20053;-66
2021/01/13 07:58:34;;;;;;;17.90;9.70;;;1.00;99.90;;;;;;5035544;28;20071;-66
2021/01/13 08:01:38;;;;;;;22.15;7.13;;;1.00;99.90;;;;;;5025202;28;20482;-66
2021/01/13 08:04:51;;;;;;;21.33;4.95;;;1.10;99.90;;;;;;5032673;28;20041;-65
2021/01/13 08:07:17;;;;;;;10.60;3.72;;;1.10;99.90;;;;;;5025112;28;20110;-66
2021/01/13 08:09:49;;;;;;;15.02;4.40;;;1.10;99.90;;;;;;5040813;28;20045;-66
2021/01/13 08:13:00;;;;;;;20.00;4.82;;;1.10;99.90;;;;;;5036541;28;20045;-66
2021/01/13 08:15:50;;;;;;;12.88;4.97;;;1.10;99.90;;;;;;5014870;28;20056;-66
2021/01/13 08:19:09;;;;;;;13.20;4.88;;;1.10;99.90;;;;;;5044704;28;20064;-65
2021/01/13 08:27:56;;;;;;;16.42;4.97;;;1.20;99.90;;;;;;5031377;28;20056;-67
2021/01/13 08:30:27;;;;;;;13.85;4.68;;;1.10;99.90;;;;;;5051599;28;20436;-70
2021/01/13 08:32:56;;;;;;;13.60;5.35;;;1.10;99.90;;;;;;5030887;28;20045;-69
2021/01/13 08:35:34;;;;;;;22.00;5.88;;;1.00;99.90;;;;;;5035496;28;20426;-67
2021/01/13 08:38:09;;;;;;;13.07;5.00;;;1.00;99.90;;;;;;5030160;28;20073;-66
2021/01/13 08:40:37;;;;;;;19.83;6.03;;;1.00;99.90;;;;;;5030789;28;20072;-66
2021/01/13 08:43:10;;;;;;;15.45;5.60;;;1.00;99.90;;;;;;5028254;28;20041;-67
2021/01/13 08:45:41;;;;;;;14.20;6.22;;;1.20;99.90;;;;;;5031114;28;20045;-66
2021/01/13 08:48:12;;;;;;;17.48;5.90;;;1.20;99.90;;;;;;5029306;28;20509;-69
2021/01/13 08:50:40;;;;;;;20.83;6.75;;;1.20;99.90;;;;;;5046681;28;20202;-67
2021/01/13 08:53:21;;;;;;;17.70;5.60;;;1.30;99.90;;;;;;5044566;28;20041;-68
2021/01/13 08:55:53;;;;;;;15.57;5.85;;;1.60;99.90;;;;;;5032104;28;20049;-68
2021/01/13 08:58:32;;;;;;;10.93;4.90;;;1.80;99.90;;;;;;5044720;28;20053;-72
2021/01/13 09:01:08;;;;;;;17.73;5.03;;;2.10;99.90;;;;;;5032123;28;20128;-68
2021/01/13 09:03:37;;;;;;;11.32;3.85;;;2.30;99.90;;;;;;5043791;28;20049;-68
2021/01/13 09:06:21;;;;;;;9.63;4.22;;;2.60;99.90;;;;;;5031200;28;20043;-68
2021/01/13 09:08:51;;;;;;;16.58;4.55;;;2.60;99.90;;;;;;5029452;28;20487;-69
2021/01/13 09:11:33;;;;;;;18.23;4.90;;;2.70;99.90;;;;;;5030406;28;20056;-73
2021/01/13 09:14:22;;;;;;;13.10;4.40;;;2.70;99.90;;;;;;5030883;28;20057;-67
2021/01/13 09:16:50;;;;;;;12.68;4.18;;;2.80;99.90;;;;;;5032154;28;20422;-67
2021/01/13 09:19:37;;;;;;;16.50;4.97;;;2.90;99.90;;;;;;5044920;28;20463;-67
2021/01/13 09:22:05;;;;;;;;;;;2.90;99.90;;;;;;5044242;28;20045;-68
2021/01/13 09:24:36;;;;;;;13.57;3.65;;;3.00;99.90;;;;;;5026594;28;19967;-67
2021/01/13 09:27:06;;;;;;;11.02;3.67;;;3.30;99.90;;;;;;5031601;28;20111;-68
2021/01/13 09:29:48;;;;;;;16.25;4.68;;;3.40;99.90;;;;;;5028074;28;20033;-67
2021/01/13 09:32:19;;;;;;;12.55;4.50;;;3.30;99.90;;;;;;5031743;28;20049;-67
2021/01/13 09:34:46;;;;;;;9.15;3.45;;;3.30;99.90;;;;;;5028465;28;20045;-67
2021/01/13 09:37:13;;;;;;;20.42;4.38;;;3.30;99.90;;;;;;5031719;28;20080;-67
2021/01/13 09:39:55;;;;;;;11.77;3.75;;;3.30;99.90;;;;;;5028942;28;20493;-67
2021/01/13 09:42:36;;;;;;;15.75;4.43;;;3.30;99.90;;;;;;5031175;28;20053;-67
2021/01/13 09:45:05;;;;;;;11.80;4.40;;;3.20;99.90;;;;;;5029324;28;20052;-68
2021/01/13 09:47:33;;;;;;;12.32;3.65;;;3.20;99.90;;;;;;5031030;28;20133;-67
2021/01/13 09:50:00;;;;;;;15.93;3.17;;;3.20;99.90;;;;;;5031697;28;20098;-67
2021/01/13 09:52:38;;;;;;;11.85;3.42;;;3.30;99.90;;;;;;5034852;28;20522;-67
2021/01/13 09:55:08;;;;;;;15.73;5.90;;;3.30;99.90;;;;;;5033073;28;20054;-68
2021/01/13 09:57:36;;;;;;;12.07;3.42;;;3.40;99.90;;;;;;5034414;28;20045;-65
2021/01/13 10:00:07;;;;;;;9.82;3.65;;;3.40;99.90;;;;;;5032812;28;20080;-68
2021/01/13 10:02:40;;;;;;;12.88;3.67;;;3.40;99.90;;;;;;5034488;28;20054;-66
2021/01/13 10:05:09;;;;;;;10.45;3.80;;;3.60;99.90;;;;;;5032434;28;20451;-66
2021/01/13 10:07:36;;;;;;;12.35;3.40;;;3.60;99.90;;;;;;5034834;28;20387;-66
2021/01/13 10:10:07;;;;;;;6.82;3.42;;;3.60;99.90;;;;;;5048128;28;20092;-66
2021/01/13 10:12:39;;;;;;;11.63;3.90;;;3.90;99.90;;;;;;5034459;28;20045;-66
2021/01/13 10:15:09;;;;;;;17.70;3.78;;;4.30;99.90;;;;;;5032765;28;20050;-67
2021/01/13 10:17:36;;;;;;;16.52;3.72;;;4.20;99.90;;;;;;5034373;28;20050;-67
2021/01/13 10:20:16;;;;;;;9.57;4.30;;;4.30;99.90;;;;;;5032686;28;20509;-67
2021/01/13 10:22:44;;;;;;;13.68;4.05;;;4.20;99.90;;;;;;5034833;28;20168;-67
2021/01/13 10:25:24;;;;;;;13.77;4.40;;;4.00;99.90;;;;;;5032198;28;20506;-66
2021/01/13 10:27:51;;;;;;;16.85;3.90;;;3.90;99.90;;;;;;5034922;28;20052;-67
2021/01/13 10:30:19;;;;;;;15.02;3.67;;;3.90;99.90;;;;;;4997025;28;20188;-71
2021/01/13 10:32:47;;;;;;;8.63;4.03;;;4.00;99.90;;;;;;5034191;28;20049;-69
2021/01/13 10:35:15;;;;;;;12.90;4.20;;;3.90;99.90;;;;;;5032022;28;20157;-74
2021/01/13 10:37:50;;;;;;;11.30;3.70;;;3.90;99.90;;;;;;5033357;28;20133;-66
2021/01/13 10:40:19;;;;;;;14.05;3.75;;;4.10;99.90;;;;;;5034522;28;20076;-67
2021/01/13 10:42:49;;;;;;;9.43;3.63;;;4.10;99.90;;;;;;5033148;28;20119;-66
2021/01/13 10:45:18;;;;;;;11.52;4.20;;;4.00;99.90;;;;;;5034353;28;20049;-66
2021/01/13 10:47:54;;;;;;;15.25;3.75;;;3.90;99.90;;;;;;5031825;28;20045;-67
2021/01/13 10:50:23;;;;;;;11.52;4.15;;;3.80;99.90;;;;;;5033615;28;20053;-66
2021/01/13 10:52:54;;;;;;;17.02;4.40;;;3.70;99.90;;;;;;5031847;28;20067;-68
2021/01/13 10:55:23;;;;;;;10.02;3.88;;;3.80;99.90;;;;;;5033613;28;20045;-68
2021/01/13 10:57:51;;;;;;;9.88;3.58;;;3.70;99.90;;;;;;5031317;28;20096;-67
2021/01/13 11:00:19;;;;;;;11.93;3.78;;;3.80;99.90;;;;;;5033085;28;20475;-71
2021/01/13 11:02:54;;;;;;;9.05;4.00;;;3.70;99.90;;;;;;5031556;28;20072;-66
2021/01/13 11:05:22;;;;;;;11.48;4.70;;;3.70;99.90;;;;;;5032837;28;20087;-66
2021/01/13 11:07:51;;;;;;;11.38;3.30;;;3.70;99.90;;;;;;5031652;28;20128;-67
2021/01/13 11:10:21;;;;;;;8.77;4.15;;;3.60;99.90;;;;;;5033826;28;20045;-72
2021/01/13 11:12:49;;;;;;;11.07;4.35;;;3.40;99.90;;;;;;5031336;28;20048;-67
2021/01/13 11:15:17;;;;;;;20.25;4.30;;;3.20;99.90;;;;;;5033460;28;20152;-67
2021/01/13 11:17:43;;;;;;;6.80;4.05;;;3.30;99.90;;;;;;5046319;28;20494;-67
2021/01/13 11:20:11;;;;;;;15.55;4.18;;;3.30;99.90;;;;;;5033825;28;20045;-66
2021/01/13 11:22:46;;;;;;;13.80;4.20;;;3.30;99.90;;;;;;5030752;28;20385;-66
2021/01/13 11:25:21;;;;;;;11.30;4.18;;;3.30;99.90;;;;;;5033441;28;20096;-67
2021/01/13 11:27:57;;;;;;;13.48;3.85;;;3.30;99.90;;;;;;5031448;28;20483;-66
2021/01/13 11:30:24;;;;;;;16.60;5.00;;;3.10;99.90;;;;;;5032748;28;20049;-67
2021/01/13 11:32:52;;;;;;;14.45;4.82;;;3.10;99.90;;;;;;5031289;28;20047;-66
2021/01/13 11:35:27;;;;;;;14.90;4.43;;;3.10;99.90;;;;;;5032630;28;20128;-67
2021/01/13 11:38:21;;;;;;;15.25;4.70;;;3.20;99.90;;;;;;5030879;28;20593;-67
2021/01/13 11:41:06;;;;;;;10.75;5.10;;;3.30;99.90;;;;;;5020945;28;20115;-67
2021/01/13 11:44:18;;;;;;;16.42;6.72;;;3.50;99.90;;;;;;5045658;28;20387;-67
2021/01/13 11:46:50;;;;;;;21.10;7.78;;;3.80;99.90;;;;;;5005865;28;20062;-67
2021/01/13 11:49:30;;;;;;;9.60;4.22;;;3.90;99.90;;;;;;5030823;28;20502;-67
2021/01/13 11:51:59;;;;;;;13.00;5.03;;;4.00;99.90;;;;;;5048607;28;20047;-67
2021/01/13 11:54:27;;;;;;;16.27;3.97;;;4.00;99.90;;;;;;5029905;28;20052;-67
2021/01/13 11:56:55;;;;;;;10.25;4.38;;;4.00;99.90;;;;;;5032847;28;20513;-67
2021/01/13 11:59:27;;;;;;;14.07;3.50;;;4.00;99.90;;;;;;5018611;28;20048;-69
2021/01/13 12:01:57;;;;;;;11.25;3.20;;;4.10;99.90;;;;;;5033042;28;20061;-67
2021/01/13 12:04:24;;;;;;;9.93;3.70;;;4.10;99.90;;;;;;5029365;28;20076;-67
2021/01/13 12:06:57;;;;;;;;;;;4.10;99.90;;;;;;5033018;28;20052;-67
2021/01/13 12:09:24;;;;;;;12.30;7.88;;;4.20;99.90;;;;;;5029781;28;19921;-68
2021/01/13 12:11:50;;;;;;;9.82;3.45;;;4.20;99.90;;;;;;5047633;28;20121;-67
2021/01/13 12:14:17;;;;;;;;;;;4.20;99.90;;;;;;5030937;28;20041;-67
2021/01/13 12:16:43;;;;;;;10.50;5.47;;;4.10;99.90;;;;;;5032436;28;19921;-68
2021/01/13 12:19:11;;;;;;;12.55;6.78;;;4.10;99.90;;;;;;5031372;28;20045;-73
2021/01/13 12:21:44;;;;;;;11.27;4.82;;;4.40;99.90;;;;;;5046808;28;20049;-67
2021/01/13 12:24:15;;;;;;;11.45;4.80;;;4.40;99.90;;;;;;5032709;28;20045;-67
2021/01/13 12:26:42;;;;;;;12.48;3.70;;;4.30;99.90;;;;;;5029115;28;20060;-67
2021/01/13 12:29:18;;;;;;;6.22;3.42;;;4.40;99.90;;;;;;5029983;28;20163;-68
2021/01/13 12:31:46;;;;;;;11.40;4.10;;;4.70;99.90;;;;;;5036867;28;20131;-67
2021/01/13 12:34:15;;;;;;;10.27;3.67;;;4.90;99.90;;;;;;5040514;28;20116;-67
2021/01/13 12:36:43;;;;;;;8.32;3.40;;;4.90;99.90;;;;;;5026205;28;20052;-66
2021/01/13 12:39:22;;;;;;;8.35;2.97;;;4.90;99.90;;;;;;5030991;28;20128;-66
2021/01/13 12:41:51;;;;;;;5.70;2.75;;;5.20;99.90;;;;;;5027530;28;20042;-66
2021/01/13 12:44:19;;;;;;;9.73;2.72;;;5.10;99.90;;;;;;5031466;28;20434;-67
2021/01/13 12:46:51;;;;;;;11.38;3.80;;;5.40;99.90;;;;;;5027540;28;20048;-66
2021/01/13 12:49:20;;;;;;;8.82;4.00;;;5.70;99.90;;;;;;5030933;28;20033;-72
2021/01/13 12:51:53;;;;;;;8.70;2.80;;;5.60;99.90;;;;;;5027248;28;20379;-66
2021/01/13 12:54:20;;;;;;;10.30;3.35;;;5.10;99.90;;;;;;5011739;28;20041;-70
2021/01/13 12:56:47;;;;;;;9.77;6.20;;;5.00;99.90;;;;;;5020824;28;20120;-67
2021/01/13 12:59:15;;;;;;;8.35;4.10;;;4.80;99.90;;;;;;5031256;28;20056;-66
2021/01/13 13:01:43;;;;;;;26.75;13.30;;;4.60;99.90;;;;;;5028158;28;20103;-66
2021/01/13 13:04:10;;;;;;;17.92;7.38;;;4.50;99.90;;;;;;5030833;28;20513;-67
2021/01/13 13:06:39;;;;;;;10.23;3.78;;;4.40;99.90;;;;;;5027555;28;20133;-68
2021/01/13 13:09:07;;;;;;;9.23;4.07;;;4.40;99.90;;;;;;5032034;28;20124;-68
2021/01/13 13:11:34;;;;;;;9.68;3.05;;;4.40;99.90;;;;;;5022663;28;20037;-68
2021/01/13 13:14:01;;;;;;;7.35;3.58;;;4.40;99.90;;;;;;5031527;28;20483;-68
2021/01/13 13:16:28;;;;;;;8.50;3.88;;;4.50;99.90;;;;;;5027338;28;20057;-68
2021/01/13 13:18:55;;;;;;;8.27;4.30;;;4.80;99.90;;;;;;5031579;28;20042;-71
2021/01/13 13:21:25;;;;;;;9.38;3.60;;;4.90;99.90;;;;;;5029273;28;20109;-69
2021/01/13 13:23:53;;;;;;;13.88;5.95;;;5.30;99.90;;;;;;5028830;28;20037;-68